sensor_id;sensor_type;location;lat;lon;timestamp;pressure;altitude;pressure_sealevel;temperature
18713;BMP280;9485;49.386;8.674;2022-09-09T00:01:54;99948.66;;;19.13
18713;BMP280;9485;49.386;8.674;2022-09-09T00:07:30;99938.72;;;19.14
18713;BMP280;9485;49.386;8.674;2022-09-09T00:13:04;99947.31;;;19.14
18713;BMP280;9485;49.386;8.674;2022-09-09T00:18:36;99939.50;;;19.14
18713;BMP280;9485;49.386;8.674;2022-09-09T00:24:09;99946.41;;;19.19
18713;BMP280;9485;49.386;8.674;2022-09-09T00:29:40;99938.56;;;19.19
18713;BMP280;9485;49.386;8.674;2022-09-09T00:35:14;99942.81;;;19.26
18713;BMP280;9485;49.386;8.674;2022-09-09T00:40:46;99939.19;;;19.33
18713;BMP280;9485;49.386;8.674;2022-09-09T00:46:32;99944.34;;;19.42
18713;BMP280;9485;49.386;8.674;2022-09-09T00:52:08;99939.03;;;19.53
18713;BMP280;9485;49.386;8.674;2022-09-09T00:57:35;99940.97;;;19.65
18713;BMP280;9485;49.386;8.674;2022-09-09T01:03:17;99949.19;;;19.76
18713;BMP280;9485;49.386;8.674;2022-09-09T01:14:40;99955.00;;;19.99
18713;BMP280;9485;49.386;8.674;2022-09-09T01:20:12;99958.81;;;20.09
18713;BMP280;9485;49.386;8.674;2022-09-09T01:26:12;99953.09;;;20.16
18713;BMP280;9485;49.386;8.674;2022-09-09T01:31:38;99958.06;;;20.23
18713;BMP280;9485;49.386;8.674;2022-09-09T01:37:06;99947.53;;;20.26
18713;BMP280;9485;49.386;8.674;2022-09-09T01:42:29;99967.41;;;20.31
18713;BMP280;9485;49.386;8.674;2022-09-09T01:47:52;99958.44;;;20.35
18713;BMP280;9485;49.386;8.674;2022-09-09T01:53:22;99972.38;;;20.38
18713;BMP280;9485;49.386;8.674;2022-09-09T01:59:03;99960.91;;;20.38
18713;BMP280;9485;49.386;8.674;2022-09-09T02:04:37;99966.44;;;20.43
18713;BMP280;9485;49.386;8.674;2022-09-09T02:10:11;99971.22;;;20.48
18713;BMP280;9485;49.386;8.674;2022-09-09T02:15:49;99955.75;;;20.44
18713;BMP280;9485;49.386;8.674;2022-09-09T02:21:14;99954.97;;;20.43
18713;BMP280;9485;49.386;8.674;2022-09-09T02:26:41;99972.97;;;20.44
18713;BMP280;9485;49.386;8.674;2022-09-09T02:32:13;99969.91;;;20.42
18713;BMP280;9485;49.386;8.674;2022-09-09T02:37:38;99965.28;;;20.39
18713;BMP280;9485;49.386;8.674;2022-09-09T02:43:00;99970.84;;;20.37
18713;BMP280;9485;49.386;8.674;2022-09-09T02:48:35;99969.72;;;20.33
18713;BMP280;9485;49.386;8.674;2022-09-09T02:54:04;99972.00;;;20.27
18713;BMP280;9485;49.386;8.674;2022-09-09T02:59:27;99972.19;;;20.21
18713;BMP280;9485;49.386;8.674;2022-09-09T03:04:51;99952.31;;;20.08
18713;BMP280;9485;49.386;8.674;2022-09-09T03:10:13;99944.66;;;20.03
18713;BMP280;9485;49.386;8.674;2022-09-09T03:15:35;99945.41;;;19.89
18713;BMP280;9485;49.386;8.674;2022-09-09T03:20:59;99943.88;;;19.88
18713;BMP280;9485;49.386;8.674;2022-09-09T03:26:22;99944.06;;;19.75
18713;BMP280;9485;49.386;8.674;2022-09-09T03:31:43;99947.28;;;19.71
18713;BMP280;9485;49.386;8.674;2022-09-09T03:37:05;99953.97;;;19.66
18713;BMP280;9485;49.386;8.674;2022-09-09T03:42:26;99946.13;;;19.60
18713;BMP280;9485;49.386;8.674;2022-09-09T03:47:48;99943.44;;;19.54
18713;BMP280;9485;49.386;8.674;2022-09-09T03:53:12;99950.88;;;19.50
18713;BMP280;9485;49.386;8.674;2022-09-09T03:58:33;99946.47;;;19.49
18713;BMP280;9485;49.386;8.674;2022-09-09T04:03:59;99953.16;;;19.51
18713;BMP280;9485;49.386;8.674;2022-09-09T04:09:23;99964.06;;;19.53
18713;BMP280;9485;49.386;8.674;2022-09-09T04:14:45;99960.63;;;19.47
18713;BMP280;9485;49.386;8.674;2022-09-09T04:20:06;99969.00;;;19.45
18713;BMP280;9485;49.386;8.674;2022-09-09T04:25:32;99973.56;;;19.48
18713;BMP280;9485;49.386;8.674;2022-09-09T04:30:53;99981.03;;;19.51
18713;BMP280;9485;49.386;8.674;2022-09-09T04:36:15;99965.97;;;19.50
18713;BMP280;9485;49.386;8.674;2022-09-09T04:41:39;99970.91;;;19.50
18713;BMP280;9485;49.386;8.674;2022-09-09T04:47:02;99973.56;;;19.48
18713;BMP280;9485;49.386;8.674;2022-09-09T04:52:23;99986.38;;;19.47
18713;BMP280;9485;49.386;8.674;2022-09-09T04:57:45;100005.28;;;19.50
18713;BMP280;9485;49.386;8.674;2022-09-09T05:03:07;99995.72;;;19.47
18713;BMP280;9485;49.386;8.674;2022-09-09T05:08:28;99998.22;;;19.51
18713;BMP280;9485;49.386;8.674;2022-09-09T05:13:50;100002.03;;;19.53
18713;BMP280;9485;49.386;8.674;2022-09-09T05:19:12;99995.00;;;19.54
18713;BMP280;9485;49.386;8.674;2022-09-09T05:24:41;100000.13;;;19.56
18713;BMP280;9485;49.386;8.674;2022-09-09T05:30:05;100006.06;;;19.58
18713;BMP280;9485;49.386;8.674;2022-09-09T05:35:28;100015.25;;;19.63
18713;BMP280;9485;49.386;8.674;2022-09-09T05:40:49;100010.47;;;19.66
18713;BMP280;9485;49.386;8.674;2022-09-09T05:46:15;100010.31;;;19.71
18713;BMP280;9485;49.386;8.674;2022-09-09T05:51:37;100026.75;;;19.78
18713;BMP280;9485;49.386;8.674;2022-09-09T05:57:03;100025.63;;;19.89
18713;BMP280;9485;49.386;8.674;2022-09-09T06:02:27;100027.19;;;19.97
18713;BMP280;9485;49.386;8.674;2022-09-09T06:07:51;100027.97;;;20.05
18713;BMP280;9485;49.386;8.674;2022-09-09T06:13:12;100027.03;;;20.10
18713;BMP280;9485;49.386;8.674;2022-09-09T06:18:35;100033.91;;;20.15
18713;BMP280;9485;49.386;8.674;2022-09-09T06:23:57;100022.25;;;20.28
18713;BMP280;9485;49.386;8.674;2022-09-09T06:29:18;100036.59;;;20.42
18713;BMP280;9485;49.386;8.674;2022-09-09T06:34:41;100028.00;;;20.65
18713;BMP280;9485;49.386;8.674;2022-09-09T06:40:02;100027.63;;;20.83
18713;BMP280;9485;49.386;8.674;2022-09-09T06:45:24;100036.41;;;20.93
18713;BMP280;9485;49.386;8.674;2022-09-09T06:50:50;100042.50;;;21.04
18713;BMP280;9485;49.386;8.674;2022-09-09T06:56:20;100033.63;;;21.24
18713;BMP280;9485;49.386;8.674;2022-09-09T07:01:44;100039.69;;;21.43
18713;BMP280;9485;49.386;8.674;2022-09-09T07:07:08;100036.22;;;21.60
18713;BMP280;9485;49.386;8.674;2022-09-09T07:12:31;100039.38;;;21.79
18713;BMP280;9485;49.386;8.674;2022-09-09T07:17:53;100046.59;;;21.87
18713;BMP280;9485;49.386;8.674;2022-09-09T07:23:22;100051.41;;;21.85
18713;BMP280;9485;49.386;8.674;2022-09-09T07:28:44;100053.06;;;21.95
18713;BMP280;9485;49.386;8.674;2022-09-09T07:34:06;100035.00;;;22.02
18713;BMP280;9485;49.386;8.674;2022-09-09T07:39:28;100041.81;;;22.87
18713;BMP280;9485;49.386;8.674;2022-09-09T07:44:49;100052.19;;;24.53
18713;BMP280;9485;49.386;8.674;2022-09-09T07:50:14;100056.44;;;25.07
18713;BMP280;9485;49.386;8.674;2022-09-09T07:55:37;100064.84;;;25.88
18713;BMP280;9485;49.386;8.674;2022-09-09T08:00:58;100053.50;;;27.00
18713;BMP280;9485;49.386;8.674;2022-09-09T08:06:18;100067.53;;;28.10
18713;BMP280;9485;49.386;8.674;2022-09-09T08:11:41;100067.34;;;29.31
18713;BMP280;9485;49.386;8.674;2022-09-09T08:17:03;100065.84;;;29.42
18713;BMP280;9485;49.386;8.674;2022-09-09T08:22:27;100068.69;;;28.83
18713;BMP280;9485;49.386;8.674;2022-09-09T08:27:52;100076.63;;;28.15
18713;BMP280;9485;49.386;8.674;2022-09-09T08:33:13;100071.56;;;28.05
18713;BMP280;9485;49.386;8.674;2022-09-09T08:38:34;100083.03;;;27.70
18713;BMP280;9485;49.386;8.674;2022-09-09T08:44:06;100070.28;;;27.01
18713;BMP280;9485;49.386;8.674;2022-09-09T08:49:49;100075.81;;;26.58
18713;BMP280;9485;49.386;8.674;2022-09-09T08:55:22;100085.84;;;25.70
18713;BMP280;9485;49.386;8.674;2022-09-09T09:01:35;100074.88;;;24.40
18713;BMP280;9485;49.386;8.674;2022-09-09T09:07:16;100076.50;;;23.81
18713;BMP280;9485;49.386;8.674;2022-09-09T09:12:44;100079.53;;;23.66
18713;BMP280;9485;49.386;8.674;2022-09-09T09:18:12;100083.13;;;23.74
18713;BMP280;9485;49.386;8.674;2022-09-09T09:23:45;100078.16;;;24.27
18713;BMP280;9485;49.386;8.674;2022-09-09T09:29:12;100081.56;;;25.14
18713;BMP280;9485;49.386;8.674;2022-09-09T09:34:35;100080.28;;;27.10
18713;BMP280;9485;49.386;8.674;2022-09-09T09:40:07;100089.66;;;29.15
18713;BMP280;9485;49.386;8.674;2022-09-09T09:45:35;100073.28;;;29.81
18713;BMP280;9485;49.386;8.674;2022-09-09T09:51:07;100082.53;;;31.04
18713;BMP280;9485;49.386;8.674;2022-09-09T09:56:31;100093.09;;;31.51
18713;BMP280;9485;49.386;8.674;2022-09-09T10:02:14;100101.03;;;30.32
18713;BMP280;9485;49.386;8.674;2022-09-09T10:07:37;100099.53;;;28.88
18713;BMP280;9485;49.386;8.674;2022-09-09T10:13:10;100106.94;;;27.59
18713;BMP280;9485;49.386;8.674;2022-09-09T10:18:52;100101.22;;;26.68
18713;BMP280;9485;49.386;8.674;2022-09-09T10:25:08;100084.09;;;26.33
18713;BMP280;9485;49.386;8.674;2022-09-09T10:30:44;100080.00;;;26.26
18713;BMP280;9485;49.386;8.674;2022-09-09T10:36:13;100080.16;;;26.38
18713;BMP280;9485;49.386;8.674;2022-09-09T10:41:51;100063.22;;;26.44
18713;BMP280;9485;49.386;8.674;2022-09-09T10:47:37;100062.34;;;27.23
18713;BMP280;9485;49.386;8.674;2022-09-09T10:53:14;100051.22;;;29.05
18713;BMP280;9485;49.386;8.674;2022-09-09T10:58:46;100041.88;;;29.55
18713;BMP280;9485;49.386;8.674;2022-09-09T11:04:16;100036.13;;;29.43
18713;BMP280;9485;49.386;8.674;2022-09-09T11:09:43;100041.78;;;30.65
18713;BMP280;9485;49.386;8.674;2022-09-09T11:15:20;100038.66;;;31.28
18713;BMP280;9485;49.386;8.674;2022-09-09T11:20:44;100048.53;;;31.50
18713;BMP280;9485;49.386;8.674;2022-09-09T11:26:12;100048.94;;;32.29
18713;BMP280;9485;49.386;8.674;2022-09-09T11:31:46;100048.91;;;33.37
18713;BMP280;9485;49.386;8.674;2022-09-09T11:37:39;100045.78;;;33.83
18713;BMP280;9485;49.386;8.674;2022-09-09T11:43:10;100043.56;;;33.49
18713;BMP280;9485;49.386;8.674;2022-09-09T11:48:36;100018.94;;;33.06
18713;BMP280;9485;49.386;8.674;2022-09-09T11:53:59;100011.22;;;33.63
18713;BMP280;9485;49.386;8.674;2022-09-09T11:59:25;100023.19;;;34.38
18713;BMP280;9485;49.386;8.674;2022-09-09T12:05:02;100013.25;;;34.28
18713;BMP280;9485;49.386;8.674;2022-09-09T12:10:31;100015.53;;;33.11
18713;BMP280;9485;49.386;8.674;2022-09-09T12:15:55;100006.69;;;32.94
18713;BMP280;9485;49.386;8.674;2022-09-09T12:21:32;100012.94;;;32.86
18713;BMP280;9485;49.386;8.674;2022-09-09T12:27:02;100006.28;;;31.65
18713;BMP280;9485;49.386;8.674;2022-09-09T12:32:27;100015.69;;;30.43
18713;BMP280;9485;49.386;8.674;2022-09-09T12:37:54;100008.94;;;31.74
18713;BMP280;9485;49.386;8.674;2022-09-09T12:43:19;100019.31;;;33.14
18713;BMP280;9485;49.386;8.674;2022-09-09T12:48:41;100014.09;;;33.95
18713;BMP280;9485;49.386;8.674;2022-09-09T12:54:04;100017.31;;;32.70
18713;BMP280;9485;49.386;8.674;2022-09-09T12:59:35;100006.03;;;31.74
18713;BMP280;9485;49.386;8.674;2022-09-09T13:05:14;100005.31;;;31.47
18713;BMP280;9485;49.386;8.674;2022-09-09T13:10:42;99999.78;;;31.11
18713;BMP280;9485;49.386;8.674;2022-09-09T13:16:17;100014.44;;;30.07
18713;BMP280;9485;49.386;8.674;2022-09-09T13:21:39;100016.63;;;28.87
18713;BMP280;9485;49.386;8.674;2022-09-09T13:27:04;100025.44;;;27.88
18713;BMP280;9485;49.386;8.674;2022-09-09T13:32:27;100063.94;;;27.14
18713;BMP280;9485;49.386;8.674;2022-09-09T13:37:48;100064.41;;;25.91
18713;BMP280;9485;49.386;8.674;2022-09-09T13:43:21;100052.00;;;24.42
18713;BMP280;9485;49.386;8.674;2022-09-09T13:48:54;100042.06;;;23.06
18713;BMP280;9485;49.386;8.674;2022-09-09T13:54:18;100025.50;;;22.16
18713;BMP280;9485;49.386;8.674;2022-09-09T13:59:40;100020.66;;;21.70
18713;BMP280;9485;49.386;8.674;2022-09-09T14:05:01;100004.81;;;21.54
18713;BMP280;9485;49.386;8.674;2022-09-09T14:10:21;99982.91;;;21.66
18713;BMP280;9485;49.386;8.674;2022-09-09T14:15:43;99986.75;;;21.93
18713;BMP280;9485;49.386;8.674;2022-09-09T14:21:05;99972.88;;;22.72
18713;BMP280;9485;49.386;8.674;2022-09-09T14:26:26;99984.72;;;23.87
18713;BMP280;9485;49.386;8.674;2022-09-09T14:31:49;99970.94;;;24.76
18713;BMP280;9485;49.386;8.674;2022-09-09T14:37:12;99977.06;;;25.36
18713;BMP280;9485;49.386;8.674;2022-09-09T14:42:33;99986.66;;;25.48
18713;BMP280;9485;49.386;8.674;2022-09-09T14:47:55;99995.34;;;25.39
18713;BMP280;9485;49.386;8.674;2022-09-09T14:53:16;99994.88;;;25.14
18713;BMP280;9485;49.386;8.674;2022-09-09T14:58:37;100000.91;;;24.90
18713;BMP280;9485;49.386;8.674;2022-09-09T15:04:03;100009.81;;;24.56
18713;BMP280;9485;49.386;8.674;2022-09-09T15:09:24;100000.16;;;24.34
18713;BMP280;9485;49.386;8.674;2022-09-09T15:14:45;100000.06;;;24.16
18713;BMP280;9485;49.386;8.674;2022-09-09T15:20:09;99985.13;;;24.00
18713;BMP280;9485;49.386;8.674;2022-09-09T15:25:29;99995.81;;;23.90
18713;BMP280;9485;49.386;8.674;2022-09-09T15:30:51;99993.88;;;23.93
18713;BMP280;9485;49.386;8.674;2022-09-09T15:36:19;100032.44;;;23.97
18713;BMP280;9485;49.386;8.674;2022-09-09T15:41:42;100033.59;;;23.68
18713;BMP280;9485;49.386;8.674;2022-09-09T15:47:03;100046.00;;;22.20
18713;BMP280;9485;49.386;8.674;2022-09-09T15:52:25;99996.03;;;20.91
18713;BMP280;9485;49.386;8.674;2022-09-09T15:57:46;100004.31;;;20.35
18713;BMP280;9485;49.386;8.674;2022-09-09T16:03:07;100018.84;;;20.29
18713;BMP280;9485;49.386;8.674;2022-09-09T16:08:33;100016.75;;;20.37
18713;BMP280;9485;49.386;8.674;2022-09-09T16:13:55;100026.28;;;20.32
18713;BMP280;9485;49.386;8.674;2022-09-09T16:19:16;100041.19;;;20.23
18713;BMP280;9485;49.386;8.674;2022-09-09T16:24:38;100040.97;;;20.14
18713;BMP280;9485;49.386;8.674;2022-09-09T16:29:59;100037.16;;;20.04
18713;BMP280;9485;49.386;8.674;2022-09-09T16:35:20;100023.94;;;20.01
18713;BMP280;9485;49.386;8.674;2022-09-09T16:40:42;100029.44;;;19.91
18713;BMP280;9485;49.386;8.674;2022-09-09T16:46:13;100028.66;;;19.83
18713;BMP280;9485;49.386;8.674;2022-09-09T16:51:38;100022.16;;;19.75
18713;BMP280;9485;49.386;8.674;2022-09-09T16:57:00;100028.66;;;19.76
18713;BMP280;9485;49.386;8.674;2022-09-09T17:02:21;100029.78;;;19.73
18713;BMP280;9485;49.386;8.674;2022-09-09T17:07:42;100037.84;;;19.74
18713;BMP280;9485;49.386;8.674;2022-09-09T17:13:05;100028.63;;;19.68
18713;BMP280;9485;49.386;8.674;2022-09-09T17:18:27;100053.28;;;19.71
18713;BMP280;9485;49.386;8.674;2022-09-09T17:23:48;100056.50;;;19.68
18713;BMP280;9485;49.386;8.674;2022-09-09T17:29:11;100043.13;;;19.63
18713;BMP280;9485;49.386;8.674;2022-09-09T17:34:31;100051.91;;;19.58
18713;BMP280;9485;49.386;8.674;2022-09-09T17:39:52;100050.72;;;19.53
18713;BMP280;9485;49.386;8.674;2022-09-09T17:45:14;100059.31;;;19.53
18713;BMP280;9485;49.386;8.674;2022-09-09T17:50:35;100052.03;;;19.45
18713;BMP280;9485;49.386;8.674;2022-09-09T17:56:03;100044.19;;;19.38
18713;BMP280;9485;49.386;8.674;2022-09-09T18:01:28;100049.50;;;19.34
18713;BMP280;9485;49.386;8.674;2022-09-09T18:06:52;100055.03;;;19.32
18713;BMP280;9485;49.386;8.674;2022-09-09T18:12:13;100052.91;;;19.25
18713;BMP280;9485;49.386;8.674;2022-09-09T18:17:35;100059.00;;;19.21
18713;BMP280;9485;49.386;8.674;2022-09-09T18:22:56;100078.25;;;19.21
18713;BMP280;9485;49.386;8.674;2022-09-09T18:28:17;100079.56;;;19.20
18713;BMP280;9485;49.386;8.674;2022-09-09T18:33:42;100145.41;;;19.20
18713;BMP280;9485;49.386;8.674;2022-09-09T18:39:06;100148.47;;;19.22
18713;BMP280;9485;49.386;8.674;2022-09-09T18:44:31;100167.41;;;19.25
18713;BMP280;9485;49.386;8.674;2022-09-09T18:49:53;100154.63;;;19.05
18713;BMP280;9485;49.386;8.674;2022-09-09T18:55:15;100190.78;;;18.95
18713;BMP280;9485;49.386;8.674;2022-09-09T19:00:36;100171.81;;;18.85
18713;BMP280;9485;49.386;8.674;2022-09-09T19:06:04;100162.41;;;18.77
18713;BMP280;9485;49.386;8.674;2022-09-09T19:11:27;100160.59;;;18.67
18713;BMP280;9485;49.386;8.674;2022-09-09T19:16:48;100171.13;;;18.51
18713;BMP280;9485;49.386;8.674;2022-09-09T19:22:11;100168.31;;;18.38
18713;BMP280;9485;49.386;8.674;2022-09-09T19:27:33;100166.28;;;18.26
18713;BMP280;9485;49.386;8.674;2022-09-09T19:32:54;100140.47;;;18.18
18713;BMP280;9485;49.386;8.674;2022-09-09T19:38:16;100124.41;;;18.15
18713;BMP280;9485;49.386;8.674;2022-09-09T19:43:37;100137.19;;;18.14
18713;BMP280;9485;49.386;8.674;2022-09-09T19:48:59;100131.66;;;18.16
18713;BMP280;9485;49.386;8.674;2022-09-09T19:54:21;100128.63;;;18.02
18713;BMP280;9485;49.386;8.674;2022-09-09T19:59:42;100147.19;;;18.08
18713;BMP280;9485;49.386;8.674;2022-09-09T20:05:04;100164.13;;;18.06
18713;BMP280;9485;49.386;8.674;2022-09-09T20:10:26;100171.16;;;18.05
18713;BMP280;9485;49.386;8.674;2022-09-09T20:15:56;100190.47;;;18.12
18713;BMP280;9485;49.386;8.674;2022-09-09T20:21:21;100180.06;;;18.14
18713;BMP280;9485;49.386;8.674;2022-09-09T20:26:44;100174.75;;;18.18
18713;BMP280;9485;49.386;8.674;2022-09-09T20:32:05;100176.19;;;18.25
18713;BMP280;9485;49.386;8.674;2022-09-09T20:37:26;100177.94;;;18.28
18713;BMP280;9485;49.386;8.674;2022-09-09T20:42:49;100178.38;;;18.32
18713;BMP280;9485;49.386;8.674;2022-09-09T20:48:10;100172.31;;;18.35
18713;BMP280;9485;49.386;8.674;2022-09-09T20:53:31;100177.47;;;18.37
18713;BMP280;9485;49.386;8.674;2022-09-09T20:58:54;100178.78;;;18.36
18713;BMP280;9485;49.386;8.674;2022-09-09T21:04:17;100182.75;;;18.33
18713;BMP280;9485;49.386;8.674;2022-09-09T21:09:39;100177.59;;;18.31
18713;BMP280;9485;49.386;8.674;2022-09-09T21:15:02;100181.06;;;18.37
18713;BMP280;9485;49.386;8.674;2022-09-09T21:20:23;100170.09;;;18.41
18713;BMP280;9485;49.386;8.674;2022-09-09T21:25:44;100173.34;;;18.45
18713;BMP280;9485;49.386;8.674;2022-09-09T21:31:13;100171.47;;;18.48
18713;BMP280;9485;49.386;8.674;2022-09-09T21:36:34;100173.44;;;18.53
18713;BMP280;9485;49.386;8.674;2022-09-09T21:41:55;100163.84;;;18.50
18713;BMP280;9485;49.386;8.674;2022-09-09T21:47:17;100156.63;;;18.49
18713;BMP280;9485;49.386;8.674;2022-09-09T21:52:38;100161.69;;;18.43
18713;BMP280;9485;49.386;8.674;2022-09-09T21:57:59;100168.09;;;18.36
18713;BMP280;9485;49.386;8.674;2022-09-09T22:03:21;100157.56;;;18.31
18713;BMP280;9485;49.386;8.674;2022-09-09T22:08:42;100161.91;;;18.25
18713;BMP280;9485;49.386;8.674;2022-09-09T22:14:04;100159.50;;;18.16
18713;BMP280;9485;49.386;8.674;2022-09-09T22:19:26;100147.41;;;18.10
18713;BMP280;9485;49.386;8.674;2022-09-09T22:24:47;100143.72;;;18.02
18713;BMP280;9485;49.386;8.674;2022-09-09T22:30:09;100160.22;;;17.96
18713;BMP280;9485;49.386;8.674;2022-09-09T22:35:38;100163.75;;;17.89
18713;BMP280;9485;49.386;8.674;2022-09-09T22:41:01;100176.91;;;17.92
18713;BMP280;9485;49.386;8.674;2022-09-09T22:46:22;100170.66;;;17.94
18713;BMP280;9485;49.386;8.674;2022-09-09T22:51:45;100180.41;;;17.98
18713;BMP280;9485;49.386;8.674;2022-09-09T22:57:05;100165.78;;;18.02
18713;BMP280;9485;49.386;8.674;2022-09-09T23:02:27;100175.34;;;18.04
18713;BMP280;9485;49.386;8.674;2022-09-09T23:07:50;100169.09;;;18.06
18713;BMP280;9485;49.386;8.674;2022-09-09T23:13:12;100167.75;;;18.07
18713;BMP280;9485;49.386;8.674;2022-09-09T23:18:32;100177.88;;;18.08
18713;BMP280;9485;49.386;8.674;2022-09-09T23:23:56;100185.44;;;18.05
18713;BMP280;9485;49.386;8.674;2022-09-09T23:29:17;100184.91;;;18.07
18713;BMP280;9485;49.386;8.674;2022-09-09T23:34:38;100195.56;;;18.06
18713;BMP280;9485;49.386;8.674;2022-09-09T23:40:01;100188.28;;;18.05
18713;BMP280;9485;49.386;8.674;2022-09-09T23:45:21;100193.03;;;18.03
18713;BMP280;9485;49.386;8.674;2022-09-09T23:50:43;100189.63;;;18.04
18713;BMP280;9485;49.386;8.674;2022-09-09T23:56:05;100185.25;;;18.03
